sensor_id;sensor_type;location;lat;lon;timestamp;pressure;altitude;pressure_sealevel;temperature;humidity
71938;BME280;59810;48.800;9.086;2023-04-02T00:07:57;96820.44;;;7.39;80.81
71938;BME280;59810;48.800;9.086;2023-04-02T00:10:33;96822.31;;;7.38;81.11
71938;BME280;59810;48.800;9.086;2023-04-02T00:15:44;96830.13;;;7.40;80.63
71938;BME280;59810;48.800;9.086;2023-04-02T00:18:18;96834.38;;;7.36;80.98
71938;BME280;59810;48.800;9.086;2023-04-02T00:20:48;96835.75;;;7.38;80.73
71938;BME280;59810;48.800;9.086;2023-04-02T00:23:15;96837.13;;;7.41;80.80
71938;BME280;59810;48.800;9.086;2023-04-02T00:25:42;96848.91;;;7.40;80.93
71938;BME280;59810;48.800;9.086;2023-04-02T00:28:18;96846.53;;;7.43;80.71
71938;BME280;59810;48.800;9.086;2023-04-02T00:30:47;96846.75;;;7.37;81.17
71938;BME280;59810;48.800;9.086;2023-04-02T00:33:17;96850.78;;;7.39;80.96
71938;BME280;59810;48.800;9.086;2023-04-02T00:35:46;96853.72;;;7.38;81.01
71938;BME280;59810;48.800;9.086;2023-04-02T00:38:25;96848.84;;;7.35;80.67
71938;BME280;59810;48.800;9.086;2023-04-02T00:40:54;96846.75;;;7.37;80.99
71938;BME280;59810;48.800;9.086;2023-04-02T00:43:31;96842.75;;;7.39;80.57
71938;BME280;59810;48.800;9.086;2023-04-02T00:46:02;96854.22;;;7.35;80.89
71938;BME280;59810;48.800;9.086;2023-04-02T00:53:46;96848.34;;;7.38;80.47
71938;BME280;59810;48.800;9.086;2023-04-02T00:56:24;96851.03;;;7.38;80.71
71938;BME280;59810;48.800;9.086;2023-04-02T00:58:53;96847.53;;;7.37;80.71
71938;BME280;59810;48.800;9.086;2023-04-02T01:01:26;96847.84;;;7.41;80.45
71938;BME280;59810;48.800;9.086;2023-04-02T01:04:02;96846.50;;;7.38;80.88
71938;BME280;59810;48.800;9.086;2023-04-02T01:06:32;96850.78;;;7.39;80.71
71938;BME280;59810;48.800;9.086;2023-04-02T01:14:53;96866.72;;;7.46;80.21
71938;BME280;59810;48.800;9.086;2023-04-02T01:31:31;96879.50;;;7.56;80.01
71938;BME280;59810;48.800;9.086;2023-04-02T01:33:58;96877.63;;;7.56;79.94
71938;BME280;59810;48.800;9.086;2023-04-02T01:44:49;96877.69;;;7.61;79.75
71938;BME280;59810;48.800;9.086;2023-04-02T01:47:18;96886.31;;;7.63;79.66
71938;BME280;59810;48.800;9.086;2023-04-02T01:49:46;96886.31;;;7.63;79.74
71938;BME280;59810;48.800;9.086;2023-04-02T01:52:16;96886.00;;;7.60;79.80
71938;BME280;59810;48.800;9.086;2023-04-02T01:54:42;96890.31;;;7.61;79.80
71938;BME280;59810;48.800;9.086;2023-04-02T01:57:08;96896.66;;;7.55;80.14
71938;BME280;59810;48.800;9.086;2023-04-02T01:59:34;96894.59;;;7.62;79.89
71938;BME280;59810;48.800;9.086;2023-04-02T02:02:05;96896.47;;;7.61;79.90
71938;BME280;59810;48.800;9.086;2023-04-02T02:04:32;96891.91;;;7.62;79.81
71938;BME280;59810;48.800;9.086;2023-04-02T02:06:58;96894.84;;;7.60;80.04
71938;BME280;59810;48.800;9.086;2023-04-02T02:09:31;96898.09;;;7.62;79.88
71938;BME280;59810;48.800;9.086;2023-04-02T02:12:00;96895.97;;;7.64;79.52
71938;BME280;59810;48.800;9.086;2023-04-02T02:14:28;96901.41;;;7.69;79.42
71938;BME280;59810;48.800;9.086;2023-04-02T02:16:57;96908.66;;;7.69;79.52
71938;BME280;59810;48.800;9.086;2023-04-02T02:24:34;96907.28;;;7.66;79.81
71938;BME280;59810;48.800;9.086;2023-04-02T02:29:52;96911.59;;;7.67;79.78
71938;BME280;59810;48.800;9.086;2023-04-02T02:32:22;96920.72;;;7.66;79.80
71938;BME280;59810;48.800;9.086;2023-04-02T02:35:11;96923.16;;;7.68;79.88
71938;BME280;59810;48.800;9.086;2023-04-02T02:37:42;96924.22;;;7.67;79.89
71938;BME280;59810;48.800;9.086;2023-04-02T02:40:14;96923.91;;;7.63;80.13
71938;BME280;59810;48.800;9.086;2023-04-02T02:42:54;96926.03;;;7.61;80.22
71938;BME280;59810;48.800;9.086;2023-04-02T02:45:26;96931.97;;;7.63;80.10
71938;BME280;59810;48.800;9.086;2023-04-02T02:47:54;96941.09;;;7.62;80.46
71938;BME280;59810;48.800;9.086;2023-04-02T02:50:26;96937.84;;;7.60;80.74
71938;BME280;59810;48.800;9.086;2023-04-02T02:52:57;96934.09;;;7.61;80.45
71938;BME280;59810;48.800;9.086;2023-04-02T02:55:29;96944.34;;;7.64;80.53
71938;BME280;59810;48.800;9.086;2023-04-02T03:00:28;96938.16;;;7.64;80.45
71938;BME280;59810;48.800;9.086;2023-04-02T03:02:55;96944.03;;;7.61;80.58
71938;BME280;59810;48.800;9.086;2023-04-02T03:05:23;96944.84;;;7.61;80.50
71938;BME280;59810;48.800;9.086;2023-04-02T03:07:52;96958.03;;;7.63;80.71
71938;BME280;59810;48.800;9.086;2023-04-02T03:10:22;96963.16;;;7.64;80.91
71938;BME280;59810;48.800;9.086;2023-04-02T03:15:37;96962.66;;;7.67;80.57
71938;BME280;59810;48.800;9.086;2023-04-02T03:18:31;96955.91;;;7.65;80.56
71938;BME280;59810;48.800;9.086;2023-04-02T03:23:31;96961.59;;;7.68;80.90
71938;BME280;59810;48.800;9.086;2023-04-02T03:26:20;96960.53;;;7.69;80.58
71938;BME280;59810;48.800;9.086;2023-04-02T03:29:03;96964.84;;;7.70;80.69
71938;BME280;59810;48.800;9.086;2023-04-02T03:31:34;96961.59;;;7.68;80.49
71938;BME280;59810;48.800;9.086;2023-04-02T03:34:13;96965.34;;;7.67;80.66
71938;BME280;59810;48.800;9.086;2023-04-02T03:39:43;96981.94;;;7.64;80.89
71938;BME280;59810;48.800;9.086;2023-04-02T03:42:24;96976.31;;;7.66;80.67
71938;BME280;59810;48.800;9.086;2023-04-02T03:47:29;96982.19;;;7.63;81.00
71938;BME280;59810;48.800;9.086;2023-04-02T03:52:50;96987.25;;;7.59;81.11
71938;BME280;59810;48.800;9.086;2023-04-02T03:55:23;96991.81;;;7.59;81.15
71938;BME280;59810;48.800;9.086;2023-04-02T03:58:23;96996.38;;;7.58;81.33
71938;BME280;59810;48.800;9.086;2023-04-02T04:00:54;96991.81;;;7.59;81.25
71938;BME280;59810;48.800;9.086;2023-04-02T04:03:31;96997.69;;;7.56;81.52
71938;BME280;59810;48.800;9.086;2023-04-02T04:06:07;96992.56;;;7.54;81.98
71938;BME280;59810;48.800;9.086;2023-04-02T04:08:39;97001.66;;;7.53;81.94
71938;BME280;59810;48.800;9.086;2023-04-02T04:11:11;97004.44;;;7.58;81.85
71938;BME280;59810;48.800;9.086;2023-04-02T04:13:47;97001.19;;;7.56;82.00
71938;BME280;59810;48.800;9.086;2023-04-02T04:16:27;97007.38;;;7.57;81.86
71938;BME280;59810;48.800;9.086;2023-04-02T04:19:03;97010.28;;;7.55;82.00
71938;BME280;59810;48.800;9.086;2023-04-02T04:21:32;97014.03;;;7.54;82.55
71938;BME280;59810;48.800;9.086;2023-04-02T04:24:10;97029.59;;;7.52;82.79
71938;BME280;59810;48.800;9.086;2023-04-02T04:26:46;97025.28;;;7.51;82.75
71938;BME280;59810;48.800;9.086;2023-04-02T04:32:37;97023.31;;;7.46;83.00
71938;BME280;59810;48.800;9.086;2023-04-02T04:38:01;97038.59;;;7.46;83.46
71938;BME280;59810;48.800;9.086;2023-04-02T04:40:44;97034.03;;;7.46;83.28
71938;BME280;59810;48.800;9.086;2023-04-02T04:43:19;97037.66;;;7.52;83.20
71938;BME280;59810;48.800;9.086;2023-04-02T04:46:09;97046.28;;;7.54;82.86
71938;BME280;59810;48.800;9.086;2023-04-02T04:48:41;97043.03;;;7.52;83.25
71938;BME280;59810;48.800;9.086;2023-04-02T04:51:36;97051.09;;;7.52;83.16
71938;BME280;59810;48.800;9.086;2023-04-02T04:54:03;97056.13;;;7.48;83.18
71938;BME280;59810;48.800;9.086;2023-04-02T04:56:30;97057.41;;;7.46;83.81
71938;BME280;59810;48.800;9.086;2023-04-02T04:59:14;97058.81;;;7.48;83.63
71938;BME280;59810;48.800;9.086;2023-04-02T05:01:49;97058.00;;;7.48;83.45
71938;BME280;59810;48.800;9.086;2023-04-02T05:04:27;97062.06;;;7.51;83.23
71938;BME280;59810;48.800;9.086;2023-04-02T05:07:06;97072.00;;;7.50;83.32
71938;BME280;59810;48.800;9.086;2023-04-02T05:09:40;97070.38;;;7.49;83.39
71938;BME280;59810;48.800;9.086;2023-04-02T05:22:55;97077.00;;;7.46;83.42
71938;BME280;59810;48.800;9.086;2023-04-02T05:25:24;97080.50;;;7.47;83.11
71938;BME280;59810;48.800;9.086;2023-04-02T05:28:17;97080.75;;;7.45;83.71
71938;BME280;59810;48.800;9.086;2023-04-02T05:30:57;97084.50;;;7.44;83.35
71938;BME280;59810;48.800;9.086;2023-04-02T05:33:29;97089.63;;;7.46;83.67
71938;BME280;59810;48.800;9.086;2023-04-02T05:38:44;97092.19;;;7.53;83.02
71938;BME280;59810;48.800;9.086;2023-04-02T05:41:26;97090.06;;;7.55;82.69
71938;BME280;59810;48.800;9.086;2023-04-02T05:44:20;97103.75;;;7.53;83.04
71938;BME280;59810;48.800;9.086;2023-04-02T05:49:50;97101.63;;;7.55;82.89
71938;BME280;59810;48.800;9.086;2023-04-02T05:52:21;97103.81;;;7.58;82.81
71938;BME280;59810;48.800;9.086;2023-04-02T05:54:54;97103.00;;;7.58;82.89
71938;BME280;59810;48.800;9.086;2023-04-02T05:57:30;97108.94;;;7.60;82.89
71938;BME280;59810;48.800;9.086;2023-04-02T05:59:59;97107.66;;;7.62;82.73
71938;BME280;59810;48.800;9.086;2023-04-02T06:02:43;97121.97;;;7.68;81.79
71938;BME280;59810;48.800;9.086;2023-04-02T06:05:18;97120.66;;;7.70;81.77
71938;BME280;59810;48.800;9.086;2023-04-02T06:08:01;97120.19;;;7.73;81.81
71938;BME280;59810;48.800;9.086;2023-04-02T06:10:33;97121.81;;;7.74;82.17
71938;BME280;59810;48.800;9.086;2023-04-02T06:13:04;97131.00;;;7.78;81.84
71938;BME280;59810;48.800;9.086;2023-04-02T06:15:31;97136.13;;;7.80;82.12
71938;BME280;59810;48.800;9.086;2023-04-02T06:20:23;97140.56;;;7.86;81.78
71938;BME280;59810;48.800;9.086;2023-04-02T06:22:59;97136.56;;;7.89;81.41
71938;BME280;59810;48.800;9.086;2023-04-02T06:25:29;97146.81;;;7.92;81.51
71938;BME280;59810;48.800;9.086;2023-04-02T06:28:03;97157.31;;;7.93;82.20
71938;BME280;59810;48.800;9.086;2023-04-02T06:30:35;97161.41;;;7.96;81.23
71938;BME280;59810;48.800;9.086;2023-04-02T06:33:03;97159.28;;;7.98;81.52
71938;BME280;59810;48.800;9.086;2023-04-02T06:35:29;97164.16;;;8.01;81.67
71938;BME280;59810;48.800;9.086;2023-04-02T06:37:56;97168.22;;;8.03;81.00
71938;BME280;59810;48.800;9.086;2023-04-02T06:43:01;97174.50;;;8.09;81.46
71938;BME280;59810;48.800;9.086;2023-04-02T06:45:33;97177.50;;;8.12;81.17
71938;BME280;59810;48.800;9.086;2023-04-02T06:48:03;97177.03;;;8.16;81.37
71938;BME280;59810;48.800;9.086;2023-04-02T06:50:43;97184.13;;;8.22;80.96
71938;BME280;59810;48.800;9.086;2023-04-02T06:53:22;97179.31;;;8.24;81.39
71938;BME280;59810;48.800;9.086;2023-04-02T06:55:53;97187.78;;;8.32;81.23
71938;BME280;59810;48.800;9.086;2023-04-02T06:58:20;97191.28;;;8.33;80.32
71938;BME280;59810;48.800;9.086;2023-04-02T07:00:47;97199.19;;;8.39;80.18
71938;BME280;59810;48.800;9.086;2023-04-02T07:03:25;97198.47;;;8.44;80.76
71938;BME280;59810;48.800;9.086;2023-04-02T07:05:51;97215.50;;;8.50;81.15
71938;BME280;59810;48.800;9.086;2023-04-02T07:08:22;97223.41;;;8.56;80.50
71938;BME280;59810;48.800;9.086;2023-04-02T07:10:48;97219.59;;;8.52;79.95
71938;BME280;59810;48.800;9.086;2023-04-02T07:13:20;97227.97;;;8.56;80.37
71938;BME280;59810;48.800;9.086;2023-04-02T07:15:48;97225.09;;;8.62;81.35
71938;BME280;59810;48.800;9.086;2023-04-02T07:18:34;97233.44;;;8.61;81.45
71938;BME280;59810;48.800;9.086;2023-04-02T07:21:00;97234.00;;;8.63;81.26
71938;BME280;59810;48.800;9.086;2023-04-02T07:23:27;97240.44;;;8.62;80.73
71938;BME280;59810;48.800;9.086;2023-04-02T07:25:54;97243.69;;;8.64;80.53
71938;BME280;59810;48.800;9.086;2023-04-02T07:28:22;97243.69;;;8.64;81.00
71938;BME280;59810;48.800;9.086;2023-04-02T07:30:47;97249.88;;;8.64;80.33
71938;BME280;59810;48.800;9.086;2023-04-02T07:33:19;97245.63;;;8.68;81.22
71938;BME280;59810;48.800;9.086;2023-04-02T07:35:46;97250.53;;;8.71;79.67
71938;BME280;59810;48.800;9.086;2023-04-02T07:38:14;97260.22;;;8.72;79.79
71938;BME280;59810;48.800;9.086;2023-04-02T07:40:40;97259.47;;;8.77;78.86
71938;BME280;59810;48.800;9.086;2023-04-02T07:43:05;97268.63;;;8.76;79.04
71938;BME280;59810;48.800;9.086;2023-04-02T07:45:33;97271.41;;;8.81;78.78
71938;BME280;59810;48.800;9.086;2023-04-02T07:48:07;97273.03;;;8.82;78.09
71938;BME280;59810;48.800;9.086;2023-04-02T07:50:36;97273.59;;;8.84;77.86
71938;BME280;59810;48.800;9.086;2023-04-02T07:53:01;97280.06;;;8.83;77.28
71938;BME280;59810;48.800;9.086;2023-04-02T07:55:27;97280.13;;;8.88;77.36
71938;BME280;59810;48.800;9.086;2023-04-02T07:57:55;97284.69;;;8.88;77.33
71938;BME280;59810;48.800;9.086;2023-04-02T08:00:21;97291.38;;;8.85;78.32
71938;BME280;59810;48.800;9.086;2023-04-02T08:02:50;97296.34;;;8.93;78.17
71938;BME280;59810;48.800;9.086;2023-04-02T08:05:18;97305.25;;;8.94;77.68
71938;BME280;59810;48.800;9.086;2023-04-02T08:07:51;97298.47;;;8.91;77.80
71938;BME280;59810;48.800;9.086;2023-04-02T08:10:17;97299.59;;;8.95;77.44
71938;BME280;59810;48.800;9.086;2023-04-02T08:12:43;97315.25;;;8.98;77.47
71938;BME280;59810;48.800;9.086;2023-04-02T08:15:12;97308.63;;;9.06;76.46
71938;BME280;59810;48.800;9.086;2023-04-02T08:17:37;97318.09;;;9.09;75.91
71938;BME280;59810;48.800;9.086;2023-04-02T08:20:03;97316.47;;;9.08;76.43
71938;BME280;59810;48.800;9.086;2023-04-02T08:22:30;97321.03;;;9.07;78.08
71938;BME280;59810;48.800;9.086;2023-04-02T08:24:56;97321.03;;;9.07;78.11
71938;BME280;59810;48.800;9.086;2023-04-02T08:27:23;97326.09;;;9.03;77.63
71938;BME280;59810;48.800;9.086;2023-04-02T08:29:48;97330.50;;;9.10;77.66
71938;BME280;59810;48.800;9.086;2023-04-02T08:32:14;97333.53;;;9.13;78.26
71938;BME280;59810;48.800;9.086;2023-04-02T08:34:43;97341.69;;;9.18;78.77
71938;BME280;59810;48.800;9.086;2023-04-02T08:37:10;97343.38;;;9.24;77.90
71938;BME280;59810;48.800;9.086;2023-04-02T08:39:36;97344.38;;;9.18;77.22
71938;BME280;59810;48.800;9.086;2023-04-02T08:42:05;97350.28;;;9.37;78.67
71938;BME280;59810;48.800;9.086;2023-04-02T08:47:06;97350.44;;;9.47;79.34
71938;BME280;59810;48.800;9.086;2023-04-02T08:49:45;97356.22;;;9.78;84.76
71938;BME280;59810;48.800;9.086;2023-04-02T08:52:21;97349.16;;;9.98;79.10
71938;BME280;59810;48.800;9.086;2023-04-02T08:54:47;97352.41;;;10.22;80.36
71938;BME280;59810;48.800;9.086;2023-04-02T08:59:56;97365.34;;;10.20;75.82
71938;BME280;59810;48.800;9.086;2023-04-02T09:02:34;97371.22;;;10.17;79.07
71938;BME280;59810;48.800;9.086;2023-04-02T09:05:04;97380.44;;;10.43;76.96
71938;BME280;59810;48.800;9.086;2023-04-02T09:07:33;97381.88;;;10.83;75.49
71938;BME280;59810;48.800;9.086;2023-04-02T09:09:58;97376.94;;;10.75;72.44
71938;BME280;59810;48.800;9.086;2023-04-02T09:12:27;97381.41;;;10.64;74.47
71938;BME280;59810;48.800;9.086;2023-04-02T09:17:34;97391.88;;;10.28;72.74
71938;BME280;59810;48.800;9.086;2023-04-02T09:20:16;97391.56;;;10.25;77.14
71938;BME280;59810;48.800;9.086;2023-04-02T09:22:47;97395.91;;;10.53;76.98
71938;BME280;59810;48.800;9.086;2023-04-02T09:25:23;97398.03;;;10.51;75.08
71938;BME280;59810;48.800;9.086;2023-04-02T09:27:53;97404.34;;;10.35;73.18
71938;BME280;59810;48.800;9.086;2023-04-02T09:30:26;97408.03;;;10.07;75.74
71938;BME280;59810;48.800;9.086;2023-04-02T09:32:56;97409.19;;;9.89;76.36
71938;BME280;59810;48.800;9.086;2023-04-02T09:35:23;97411.63;;;9.90;76.63
71938;BME280;59810;48.800;9.086;2023-04-02T09:38:20;97416.53;;;9.93;76.87
71938;BME280;59810;48.800;9.086;2023-04-02T09:43:22;97427.19;;;9.83;76.54
71938;BME280;59810;48.800;9.086;2023-04-02T09:46:05;97432.63;;;9.88;77.20
71938;BME280;59810;48.800;9.086;2023-04-02T09:48:36;97430.63;;;9.79;76.28
71938;BME280;59810;48.800;9.086;2023-04-02T09:51:11;97436.75;;;9.74;76.33
71938;BME280;59810;48.800;9.086;2023-04-02T09:56:23;97437.34;;;9.98;77.40
71938;BME280;59810;48.800;9.086;2023-04-02T10:01:45;97447.06;;;9.99;76.39
71938;BME280;59810;48.800;9.086;2023-04-02T10:07:02;97454.84;;;10.17;74.99
71938;BME280;59810;48.800;9.086;2023-04-02T10:09:33;97457.56;;;10.17;75.87
71938;BME280;59810;48.800;9.086;2023-04-02T10:12:11;97456.44;;;10.13;77.00
71938;BME280;59810;48.800;9.086;2023-04-02T10:14:43;97463.59;;;10.24;76.26
71938;BME280;59810;48.800;9.086;2023-04-02T10:17:26;97460.91;;;10.24;74.74
71938;BME280;59810;48.800;9.086;2023-04-02T10:19:58;97463.59;;;10.08;75.67
71938;BME280;59810;48.800;9.086;2023-04-02T10:22:28;97470.31;;;10.05;75.96
71938;BME280;59810;48.800;9.086;2023-04-02T10:24:54;97467.88;;;10.04;74.70
71938;BME280;59810;48.800;9.086;2023-04-02T10:30:41;97480.19;;;9.94;76.02
71938;BME280;59810;48.800;9.086;2023-04-02T10:33:39;97471.78;;;9.74;75.10
71938;BME280;59810;48.800;9.086;2023-04-02T10:36:23;97480.69;;;9.75;74.44
71938;BME280;59810;48.800;9.086;2023-04-02T10:39:11;97475.81;;;9.72;74.69
71938;BME280;59810;48.800;9.086;2023-04-02T10:41:52;97479.88;;;9.74;75.42
71938;BME280;59810;48.800;9.086;2023-04-02T10:49:52;97488.78;;;9.75;73.64
71938;BME280;59810;48.800;9.086;2023-04-02T10:52:38;97490.19;;;9.77;73.24
71938;BME280;59810;48.800;9.086;2023-04-02T10:55:24;97495.84;;;9.76;73.24
71938;BME280;59810;48.800;9.086;2023-04-02T10:57:51;97494.03;;;9.81;73.75
71938;BME280;59810;48.800;9.086;2023-04-02T11:00:23;97496.53;;;9.88;73.74
71938;BME280;59810;48.800;9.086;2023-04-02T11:02:57;97502.25;;;9.91;74.22
71938;BME280;59810;48.800;9.086;2023-04-02T11:05:46;97508.59;;;10.02;70.82
71938;BME280;59810;48.800;9.086;2023-04-02T11:10:54;97513.00;;;10.08;70.26
71938;BME280;59810;48.800;9.086;2023-04-02T11:13:31;97513.41;;;10.00;70.95
71938;BME280;59810;48.800;9.086;2023-04-02T11:16:01;97514.66;;;9.92;72.16
71938;BME280;59810;48.800;9.086;2023-04-02T11:18:31;97512.66;;;10.05;71.73
71938;BME280;59810;48.800;9.086;2023-04-02T11:21:05;97515.78;;;10.13;71.69
71938;BME280;59810;48.800;9.086;2023-04-02T11:23:38;97520.16;;;10.19;70.93
71938;BME280;59810;48.800;9.086;2023-04-02T11:29:26;97527.50;;;10.41;70.86
71938;BME280;59810;48.800;9.086;2023-04-02T11:32:37;97531.13;;;10.51;70.74
71938;BME280;59810;48.800;9.086;2023-04-02T11:38:00;97536.28;;;10.53;70.20
71938;BME280;59810;48.800;9.086;2023-04-02T11:45:58;97540.84;;;11.01;74.46
71938;BME280;59810;48.800;9.086;2023-04-02T11:48:32;97545.50;;;11.06;69.18
71938;BME280;59810;48.800;9.086;2023-04-02T11:51:14;97544.88;;;10.99;68.04
71938;BME280;59810;48.800;9.086;2023-04-02T11:53:51;97537.97;;;11.08;68.80
71938;BME280;59810;48.800;9.086;2023-04-02T11:56:33;97552.22;;;11.30;66.09
71938;BME280;59810;48.800;9.086;2023-04-02T12:01:38;97540.19;;;11.43;65.99
71938;BME280;59810;48.800;9.086;2023-04-02T12:12:25;97562.75;;;11.59;65.93
71938;BME280;59810;48.800;9.086;2023-04-02T12:14:56;97571.38;;;11.56;66.14
71938;BME280;59810;48.800;9.086;2023-04-02T12:19:56;97563.13;;;11.40;66.49
71938;BME280;59810;48.800;9.086;2023-04-02T12:22:25;97566.13;;;11.44;66.68
71938;BME280;59810;48.800;9.086;2023-04-02T12:25:02;97567.41;;;11.36;66.90
71938;BME280;59810;48.800;9.086;2023-04-02T12:27:31;97566.16;;;11.17;69.50
71938;BME280;59810;48.800;9.086;2023-04-02T12:32:37;97570.22;;;11.19;68.01
71938;BME280;59810;48.800;9.086;2023-04-02T12:35:04;97570.44;;;11.13;68.71
71938;BME280;59810;48.800;9.086;2023-04-02T12:37:30;97573.94;;;11.13;68.68
71938;BME280;59810;48.800;9.086;2023-04-02T12:39:58;97570.94;;;11.10;69.03
71938;BME280;59810;48.800;9.086;2023-04-02T12:42:35;97571.47;;;11.07;68.79
71938;BME280;59810;48.800;9.086;2023-04-02T12:45:02;97582.19;;;11.02;69.37
71938;BME280;59810;48.800;9.086;2023-04-02T12:47:28;97581.13;;;11.03;68.26
71938;BME280;59810;48.800;9.086;2023-04-02T12:49:55;97580.75;;;10.94;68.88
71938;BME280;59810;48.800;9.086;2023-04-02T12:52:24;97582.28;;;10.85;70.13
71938;BME280;59810;48.800;9.086;2023-04-02T12:59:54;97586.75;;;10.74;70.13
71938;BME280;59810;48.800;9.086;2023-04-02T13:07:16;97601.50;;;10.45;73.12
71938;BME280;59810;48.800;9.086;2023-04-02T13:09:48;97594.56;;;10.32;74.10
71938;BME280;59810;48.800;9.086;2023-04-02T13:12:29;97598.41;;;10.19;74.79
71938;BME280;59810;48.800;9.086;2023-04-02T13:14:57;97608.16;;;10.20;74.67
71938;BME280;59810;48.800;9.086;2023-04-02T13:17:46;97622.63;;;10.14;75.62
71938;BME280;59810;48.800;9.086;2023-04-02T13:22:52;97612.41;;;9.99;76.53
71938;BME280;59810;48.800;9.086;2023-04-02T13:25:20;97614.78;;;9.96;78.38
71938;BME280;59810;48.800;9.086;2023-04-02T13:27:48;97620.25;;;9.84;79.88
71938;BME280;59810;48.800;9.086;2023-04-02T13:30:21;97625.81;;;9.78;80.25
71938;BME280;59810;48.800;9.086;2023-04-02T13:32:47;97625.63;;;9.51;80.79
71938;BME280;59810;48.800;9.086;2023-04-02T13:35:13;97626.25;;;9.41;81.44
71938;BME280;59810;48.800;9.086;2023-04-02T13:37:40;97633.41;;;9.35;81.74
71938;BME280;59810;48.800;9.086;2023-04-02T13:40:06;97634.00;;;9.38;82.07
71938;BME280;59810;48.800;9.086;2023-04-02T13:42:32;97636.84;;;9.31;82.65
71938;BME280;59810;48.800;9.086;2023-04-02T13:45:00;97641.56;;;9.24;83.34
71938;BME280;59810;48.800;9.086;2023-04-02T13:47:26;97646.28;;;9.17;83.94
71938;BME280;59810;48.800;9.086;2023-04-02T13:49:56;97651.69;;;9.17;84.34
71938;BME280;59810;48.800;9.086;2023-04-02T13:52:21;97649.56;;;9.19;83.90
71938;BME280;59810;48.800;9.086;2023-04-02T13:54:48;97656.97;;;9.12;84.40
71938;BME280;59810;48.800;9.086;2023-04-02T13:57:15;97651.94;;;9.03;84.78
71938;BME280;59810;48.800;9.086;2023-04-02T13:59:41;97666.28;;;8.92;85.56
71938;BME280;59810;48.800;9.086;2023-04-02T14:02:27;97670.97;;;8.85;85.81
71938;BME280;59810;48.800;9.086;2023-04-02T14:07:54;97671.25;;;8.60;87.32
71938;BME280;59810;48.800;9.086;2023-04-02T14:16:05;97691.03;;;8.54;87.69
71938;BME280;59810;48.800;9.086;2023-04-02T14:21:31;97694.66;;;8.48;89.07
71938;BME280;59810;48.800;9.086;2023-04-02T14:24:18;97700.97;;;8.54;88.83
71938;BME280;59810;48.800;9.086;2023-04-02T14:27:01;97702.00;;;8.41;88.39
71938;BME280;59810;48.800;9.086;2023-04-02T14:29:55;97705.19;;;8.50;88.19
71938;BME280;59810;48.800;9.086;2023-04-02T14:32:31;97705.53;;;8.53;88.35
71938;BME280;59810;48.800;9.086;2023-04-02T14:38:03;97709.88;;;8.54;86.91
71938;BME280;59810;48.800;9.086;2023-04-02T14:43:07;97716.75;;;8.73;86.81
71938;BME280;59810;48.800;9.086;2023-04-02T14:48:36;97723.88;;;8.68;86.39
71938;BME280;59810;48.800;9.086;2023-04-02T14:59:34;97721.34;;;8.50;86.36
71938;BME280;59810;48.800;9.086;2023-04-02T15:05:19;97722.16;;;8.50;87.46
71938;BME280;59810;48.800;9.086;2023-04-02T15:07:54;97721.34;;;8.50;87.85
71938;BME280;59810;48.800;9.086;2023-04-02T15:10:57;97727.41;;;8.45;87.75
71938;BME280;59810;48.800;9.086;2023-04-02T15:13:42;97732.34;;;8.48;87.01
71938;BME280;59810;48.800;9.086;2023-04-02T15:16:15;97733.22;;;8.30;87.10
71938;BME280;59810;48.800;9.086;2023-04-02T15:18:43;97735.13;;;8.41;87.36
71938;BME280;59810;48.800;9.086;2023-04-02T15:32:03;97749.00;;;8.27;86.68
71938;BME280;59810;48.800;9.086;2023-04-02T15:34:44;97751.59;;;8.33;87.66
71938;BME280;59810;48.800;9.086;2023-04-02T15:40:31;97755.31;;;8.32;87.20
71938;BME280;59810;48.800;9.086;2023-04-02T15:45:55;97768.28;;;8.24;86.67
71938;BME280;59810;48.800;9.086;2023-04-02T15:48:56;97774.25;;;8.14;87.27
71938;BME280;59810;48.800;9.086;2023-04-02T15:51:49;97779.81;;;8.12;87.45
71938;BME280;59810;48.800;9.086;2023-04-02T15:57:44;97791.81;;;7.87;88.26
71938;BME280;59810;48.800;9.086;2023-04-02T16:10:56;97810.34;;;7.76;89.83
71938;BME280;59810;48.800;9.086;2023-04-02T16:13:33;97816.75;;;7.75;89.49
71938;BME280;59810;48.800;9.086;2023-04-02T16:16:10;97824.69;;;7.70;88.38
71938;BME280;59810;48.800;9.086;2023-04-02T16:22:04;97815.34;;;7.73;89.39
71938;BME280;59810;48.800;9.086;2023-04-02T16:24:27;97824.81;;;7.75;88.44
71938;BME280;59810;48.800;9.086;2023-04-02T16:30:05;97833.47;;;7.77;87.64
71938;BME280;59810;48.800;9.086;2023-04-02T16:49:29;97857.38;;;7.67;86.24
71938;BME280;59810;48.800;9.086;2023-04-02T17:08:25;97892.47;;;7.17;85.12
71938;BME280;59810;48.800;9.086;2023-04-02T17:11:15;97900.94;;;7.14;84.90
71938;BME280;59810;48.800;9.086;2023-04-02T17:13:56;97903.63;;;7.14;84.70
71938;BME280;59810;48.800;9.086;2023-04-02T17:16:43;97903.81;;;7.20;84.16
71938;BME280;59810;48.800;9.086;2023-04-02T17:19:12;97910.44;;;7.17;84.17
71938;BME280;59810;48.800;9.086;2023-04-02T17:21:43;97919.63;;;7.28;83.42
71938;BME280;59810;48.800;9.086;2023-04-02T17:24:19;97932.28;;;7.21;83.05
71938;BME280;59810;48.800;9.086;2023-04-02T17:26:57;97930.66;;;7.20;82.83
71938;BME280;59810;48.800;9.086;2023-04-02T17:29:44;97936.06;;;7.13;82.47
71938;BME280;59810;48.800;9.086;2023-04-02T17:32:30;97937.69;;;7.14;83.27
71938;BME280;59810;48.800;9.086;2023-04-02T17:35:00;97945.94;;;7.19;83.07
71938;BME280;59810;48.800;9.086;2023-04-02T17:37:43;97945.81;;;7.32;83.71
71938;BME280;59810;48.800;9.086;2023-04-02T17:43:26;97960.66;;;7.10;81.31
71938;BME280;59810;48.800;9.086;2023-04-02T17:46:01;97975.72;;;7.11;81.03
71938;BME280;59810;48.800;9.086;2023-04-02T17:48:31;97981.28;;;6.91;80.04
71938;BME280;59810;48.800;9.086;2023-04-02T17:51:19;97980.06;;;6.87;80.38
71938;BME280;59810;48.800;9.086;2023-04-02T17:54:21;97981.53;;;6.83;80.50
71938;BME280;59810;48.800;9.086;2023-04-02T17:59:37;97996.25;;;6.74;79.64
71938;BME280;59810;48.800;9.086;2023-04-02T18:13:40;98037.66;;;6.53;80.05
71938;BME280;59810;48.800;9.086;2023-04-02T18:18:55;98047.56;;;6.46;79.12
71938;BME280;59810;48.800;9.086;2023-04-02T18:29:59;98067.22;;;6.33;80.06
71938;BME280;59810;48.800;9.086;2023-04-02T18:38:07;98087.06;;;6.26;80.15
71938;BME280;59810;48.800;9.086;2023-04-02T18:40:48;98089.31;;;6.29;80.48
71938;BME280;59810;48.800;9.086;2023-04-02T18:43:31;98087.88;;;6.26;79.93